createdAt,value
2017-09-13T00:00:12.351Z,21.90
2017-09-13T00:02:41.444Z,21.90
2017-09-13T00:05:10.311Z,21.90
2017-09-13T00:07:39.429Z,21.90
2017-09-13T00:10:08.421Z,21.90
2017-09-13T00:12:37.417Z,21.90
2017-09-13T00:15:07.706Z,21.80
2017-09-13T00:17:36.641Z,21.80
2017-09-13T00:20:05.523Z,21.80
2017-09-13T00:22:35.656Z,21.80
2017-09-13T00:25:04.432Z,21.80
2017-09-13T00:27:33.739Z,21.90
2017-09-13T00:30:03.037Z,21.90
2017-09-13T00:32:32.253Z,21.90
2017-09-13T00:35:02.551Z,21.90
2017-09-13T00:37:31.351Z,21.90
2017-09-13T00:40:01.423Z,21.70
2017-09-13T00:42:30.696Z,21.70
2017-09-13T00:44:59.767Z,21.60
2017-09-13T00:47:29.954Z,21.60
2017-09-13T00:49:59.186Z,21.50
2017-09-13T00:52:29.274Z,21.50
2017-09-13T00:54:59.746Z,21.60
2017-09-13T00:57:29.625Z,21.50
2017-09-13T00:59:58.610Z,21.50
2017-09-13T01:02:27.690Z,21.40
2017-09-13T01:04:57.644Z,21.50
2017-09-13T01:07:27.062Z,21.50
2017-09-13T01:09:57.174Z,21.30
2017-09-13T01:12:26.066Z,21.40
2017-09-13T01:14:56.185Z,21.30
2017-09-13T01:17:25.072Z,21.30
2017-09-13T01:19:54.585Z,21.30
2017-09-13T01:22:23.467Z,21.30
2017-09-13T01:24:53.711Z,21.30
2017-09-13T01:27:22.937Z,21.30
2017-09-13T01:29:53.196Z,21.40
2017-09-13T01:32:22.369Z,21.40
2017-09-13T01:34:51.532Z,21.40
2017-09-13T01:37:20.708Z,21.30
2017-09-13T01:39:49.593Z,21.30
2017-09-13T01:42:19.206Z,21.30
2017-09-13T01:44:48.198Z,21.40
2017-09-13T01:47:17.091Z,21.40
2017-09-13T01:49:46.182Z,21.50
2017-09-13T01:52:15.072Z,21.40
2017-09-13T01:54:44.210Z,21.40
2017-09-13T01:57:13.470Z,21.30
2017-09-13T01:59:43.132Z,21.30
2017-09-13T02:02:12.174Z,21.30
2017-09-13T02:04:41.119Z,21.20
2017-09-13T02:07:10.008Z,21.20
2017-09-13T02:09:38.951Z,21.20
2017-09-13T02:12:08.064Z,21.10
2017-09-13T02:14:37.965Z,21.10
2017-09-13T02:17:07.262Z,21.10
2017-09-13T02:19:36.358Z,21.20
2017-09-13T02:22:05.552Z,21.20
2017-09-13T02:24:34.652Z,21.20
2017-09-13T02:27:04.364Z,21.20
2017-09-13T02:29:33.367Z,21.20
2017-09-13T02:32:03.681Z,21.20
2017-09-13T02:34:32.571Z,21.20
2017-09-13T02:37:01.667Z,21.20
2017-09-13T02:39:30.357Z,21.20
2017-09-13T02:42:00.371Z,21.10
2017-09-13T02:44:29.363Z,21.10
2017-09-13T02:46:58.338Z,21.10
2017-09-13T02:49:27.259Z,21.10
2017-09-13T02:51:57.044Z,21.00
2017-09-13T02:54:26.060Z,21.00
2017-09-13T02:56:54.905Z,21.00
2017-09-13T02:59:23.845Z,21.00
2017-09-13T03:01:52.893Z,21.10
2017-09-13T03:04:21.632Z,21.00
2017-09-13T03:06:51.534Z,21.10
2017-09-13T03:11:55.665Z,21.00
2017-09-13T03:14:24.765Z,21.00
2017-09-13T03:16:53.655Z,21.00
2017-09-13T03:19:22.546Z,21.00
2017-09-13T03:21:51.616Z,21.10
2017-09-13T03:24:20.839Z,21.10
2017-09-13T03:26:50.754Z,21.00
2017-09-13T03:29:20.070Z,21.00
2017-09-13T03:31:49.189Z,20.90
2017-09-13T03:34:19.656Z,20.90
2017-09-13T03:36:49.489Z,20.90
2017-09-13T03:39:18.383Z,20.90
2017-09-13T03:41:47.563Z,20.90
2017-09-13T03:44:17.189Z,20.90
2017-09-13T03:46:46.425Z,20.90
2017-09-13T03:49:16.096Z,20.90
2017-09-13T03:51:45.507Z,20.90
2017-09-13T03:54:15.417Z,20.80
2017-09-13T03:56:45.336Z,20.70
2017-09-13T03:59:14.425Z,20.70
2017-09-13T04:01:43.531Z,20.80
2017-09-13T04:04:12.465Z,20.80
2017-09-13T04:06:42.072Z,20.80
2017-09-13T04:09:11.219Z,20.70
2017-09-13T04:11:40.110Z,20.70
2017-09-13T04:14:10.464Z,20.70
2017-09-13T04:16:39.664Z,20.70
2017-09-13T04:19:08.581Z,20.80
2017-09-13T04:21:37.627Z,20.70
2017-09-13T04:24:07.444Z,20.70
2017-09-13T04:26:36.324Z,20.70
2017-09-13T04:29:06.242Z,20.60
2017-09-13T04:31:35.796Z,20.60
2017-09-13T04:34:06.961Z,20.60
2017-09-13T04:36:36.394Z,20.60
2017-09-13T04:39:05.691Z,20.60
2017-09-13T04:41:35.521Z,20.60
2017-09-13T04:44:05.527Z,20.60
2017-09-13T04:46:35.854Z,20.60
2017-09-13T04:49:04.768Z,20.60
2017-09-13T04:51:34.917Z,20.60
2017-09-13T04:54:05.306Z,20.60
2017-09-13T04:56:34.998Z,20.60
2017-09-13T04:59:05.295Z,20.60
2017-09-13T05:01:34.657Z,20.60
2017-09-13T05:04:04.140Z,20.60
2017-09-13T05:06:33.521Z,20.60
2017-09-13T05:09:02.633Z,20.70
2017-09-13T05:11:31.934Z,20.60
2017-09-13T05:14:00.851Z,20.60
2017-09-13T05:16:29.814Z,20.60
2017-09-13T05:18:58.714Z,20.60
2017-09-13T05:21:27.604Z,20.60
2017-09-13T05:23:56.994Z,20.70
2017-09-13T05:26:25.889Z,20.70
2017-09-13T05:28:54.944Z,20.70
2017-09-13T05:31:23.869Z,20.70
2017-09-13T05:33:52.772Z,20.70
2017-09-13T05:36:21.762Z,20.70
2017-09-13T05:38:50.993Z,20.70
2017-09-13T05:41:21.183Z,20.70
2017-09-13T05:43:50.250Z,20.70
2017-09-13T05:46:19.088Z,20.70
2017-09-13T05:48:48.163Z,20.70
2017-09-13T05:51:18.280Z,20.70
2017-09-13T05:53:48.331Z,20.80
2017-09-13T05:56:17.390Z,20.80
2017-09-13T05:58:46.568Z,20.80
2017-09-13T06:01:15.789Z,20.80
2017-09-13T06:03:44.923Z,20.90
2017-09-13T06:06:15.006Z,20.90
2017-09-13T06:08:43.899Z,20.90
2017-09-13T06:11:12.861Z,21.00
2017-09-13T06:13:41.987Z,21.00
2017-09-13T06:16:11.318Z,21.00
2017-09-13T06:18:40.298Z,21.10
2017-09-13T06:21:09.345Z,21.10
2017-09-13T06:23:38.262Z,21.10
2017-09-13T06:26:07.237Z,21.10
2017-09-13T06:28:38.204Z,21.20
2017-09-13T06:31:13.923Z,21.20
2017-09-13T06:33:45.404Z,21.20
2017-09-13T06:36:14.700Z,21.30
2017-09-13T06:38:44.270Z,21.30
2017-09-13T06:41:14.002Z,21.30
2017-09-13T06:43:42.933Z,21.40
2017-09-13T06:46:11.910Z,21.50
2017-09-13T06:48:41.361Z,21.50
2017-09-13T06:51:10.409Z,21.60
2017-09-13T06:53:39.505Z,21.60
2017-09-13T06:56:10.156Z,21.70
2017-09-13T06:58:39.634Z,21.60
2017-09-13T07:01:08.936Z,21.70
2017-09-13T07:03:37.825Z,21.70
2017-09-13T07:06:07.084Z,21.90
2017-09-13T07:08:36.025Z,22.10
2017-09-13T07:11:05.771Z,22.90
2017-09-13T07:13:35.112Z,23.90
2017-09-13T07:16:04.207Z,25.40
2017-09-13T07:18:33.287Z,25.90
2017-09-13T07:21:02.112Z,26.00
2017-09-13T07:23:32.038Z,27.80
2017-09-13T07:26:02.533Z,28.30
2017-09-13T07:28:32.129Z,28.20
2017-09-13T07:31:01.102Z,29.00
2017-09-13T07:33:30.971Z,27.40
2017-09-13T07:36:00.223Z,27.40
2017-09-13T07:38:29.779Z,27.00
2017-09-13T07:40:58.915Z,26.80
2017-09-13T07:43:28.955Z,25.70
2017-09-13T07:45:57.971Z,26.90
2017-09-13T07:48:26.936Z,26.90
2017-09-13T07:50:56.837Z,27.50
2017-09-13T07:53:26.440Z,28.60
2017-09-13T07:55:55.636Z,28.20
2017-09-13T07:58:25.632Z,27.40
2017-09-13T08:00:55.499Z,27.40
2017-09-13T08:03:25.086Z,27.50
2017-09-13T08:05:54.404Z,29.40
2017-09-13T08:08:25.025Z,27.90
2017-09-13T08:10:54.179Z,27.80
2017-09-13T08:13:24.719Z,29.30
2017-09-13T08:15:54.611Z,32.70
2017-09-13T08:18:23.917Z,32.60
2017-09-13T08:20:53.430Z,33.00
2017-09-13T08:23:22.722Z,32.80
2017-09-13T08:25:51.931Z,32.30
2017-09-13T08:28:21.832Z,31.60
2017-09-13T08:30:52.129Z,30.40
2017-09-13T08:33:21.507Z,29.30
2017-09-13T08:35:50.552Z,28.00
2017-09-13T08:38:19.442Z,28.20
2017-09-13T08:40:49.283Z,28.00
2017-09-13T08:43:18.761Z,27.80
2017-09-13T08:45:48.603Z,27.10
2017-09-13T08:48:17.572Z,27.10
2017-09-13T08:50:46.787Z,26.50
2017-09-13T08:53:16.067Z,25.70
2017-09-13T08:55:45.791Z,25.10
2017-09-13T08:58:15.285Z,24.70
2017-09-13T09:00:44.518Z,24.50
2017-09-13T09:03:13.885Z,24.60
2017-09-13T09:05:43.057Z,24.60
2017-09-13T09:08:11.972Z,24.60
2017-09-13T09:10:41.861Z,24.40
2017-09-13T09:13:11.606Z,24.40
2017-09-13T09:15:40.700Z,24.50
2017-09-13T09:18:10.613Z,25.00
2017-09-13T09:20:39.703Z,25.00
2017-09-13T09:23:08.798Z,25.00
2017-09-13T09:25:38.509Z,25.20
2017-09-13T09:28:07.606Z,25.10
2017-09-13T09:30:37.929Z,25.20
2017-09-13T09:33:08.053Z,25.20
2017-09-13T09:35:38.988Z,25.30
2017-09-13T09:38:08.099Z,25.30
2017-09-13T09:40:37.054Z,25.30
2017-09-13T09:43:06.236Z,24.80
2017-09-13T09:45:36.304Z,24.50
2017-09-13T09:48:05.420Z,24.60
2017-09-13T09:50:34.532Z,24.60
2017-09-13T09:53:03.683Z,24.60
2017-09-13T09:55:32.589Z,24.70
2017-09-13T09:58:02.722Z,24.70
2017-09-13T10:00:32.172Z,24.80
2017-09-13T10:03:01.133Z,24.80
2017-09-13T10:05:31.436Z,25.00
2017-09-13T10:08:01.333Z,25.10
2017-09-13T10:10:31.025Z,25.10
2017-09-13T10:13:00.400Z,25.00
2017-09-13T10:15:29.481Z,24.90
2017-09-13T10:17:58.605Z,24.90
2017-09-13T10:20:27.801Z,24.90
2017-09-13T10:22:57.293Z,24.80
2017-09-13T10:25:26.406Z,24.90
2017-09-13T10:27:56.987Z,25.10
2017-09-13T10:30:26.215Z,25.00
2017-09-13T10:32:57.168Z,25.30
2017-09-13T10:35:26.578Z,25.60
2017-09-13T10:37:55.909Z,25.40
2017-09-13T10:40:25.007Z,25.40
2017-09-13T10:42:54.275Z,25.30
2017-09-13T10:45:23.508Z,25.40
2017-09-13T10:47:52.497Z,25.40
2017-09-13T10:50:21.881Z,25.50
2017-09-13T10:52:51.086Z,25.60
2017-09-13T10:55:20.855Z,26.00
2017-09-13T10:57:50.974Z,26.10
2017-09-13T11:00:20.734Z,26.30
2017-09-13T11:02:50.588Z,26.60
2017-09-13T11:05:20.232Z,26.90
2017-09-13T11:07:50.736Z,27.00
2017-09-13T11:10:20.829Z,26.60
2017-09-13T11:12:52.409Z,26.50
2017-09-13T11:15:22.448Z,26.40
2017-09-13T11:17:51.843Z,26.40
2017-09-13T11:20:20.982Z,26.70
2017-09-13T11:22:50.662Z,26.70
2017-09-13T11:25:20.498Z,26.60
2017-09-13T11:27:49.813Z,26.80
2017-09-13T11:30:19.089Z,26.80
2017-09-13T11:32:47.998Z,26.90
2017-09-13T11:35:17.974Z,27.30
2017-09-13T11:37:47.684Z,28.10
2017-09-13T11:40:16.942Z,29.10
2017-09-13T11:42:45.828Z,29.40
2017-09-13T11:45:16.119Z,29.70
2017-09-13T11:47:45.649Z,29.70
2017-09-13T11:50:16.675Z,30.30
2017-09-13T11:52:46.485Z,30.30
2017-09-13T11:55:16.424Z,30.70
2017-09-13T11:57:45.829Z,31.40
2017-09-13T12:00:15.528Z,31.20
2017-09-13T12:02:46.179Z,31.20
2017-09-13T12:05:16.481Z,31.30
2017-09-13T12:07:45.933Z,32.00
2017-09-13T12:10:15.327Z,31.80
2017-09-13T12:12:45.694Z,31.60
2017-09-13T12:15:15.199Z,31.60
2017-09-13T12:17:44.337Z,32.50
2017-09-13T12:20:14.472Z,33.50
2017-09-13T12:22:43.414Z,33.40
2017-09-13T12:25:13.557Z,32.00
2017-09-13T12:27:43.717Z,31.80
2017-09-13T12:30:16.396Z,31.30
2017-09-13T12:32:46.792Z,31.20
2017-09-13T12:35:16.572Z,32.20
2017-09-13T12:37:45.694Z,32.60
2017-09-13T12:40:14.783Z,33.30
2017-09-13T12:42:43.683Z,33.20
2017-09-13T12:45:14.428Z,33.30
2017-09-13T12:47:45.046Z,32.40
2017-09-13T12:50:15.193Z,32.40
2017-09-13T12:52:44.631Z,32.40
2017-09-13T12:55:15.224Z,32.60
2017-09-13T12:57:45.754Z,33.30
2017-09-13T13:00:14.685Z,32.60
2017-09-13T13:02:44.138Z,33.50
2017-09-13T13:05:13.115Z,33.00
2017-09-13T13:07:42.295Z,32.00
2017-09-13T13:10:11.685Z,32.20
2017-09-13T13:12:41.632Z,31.80
2017-09-13T13:15:10.939Z,31.80
2017-09-13T13:17:40.901Z,33.00
2017-09-13T13:20:10.062Z,33.40
2017-09-13T13:22:39.044Z,33.00
2017-09-13T13:25:09.162Z,32.50
2017-09-13T13:27:38.392Z,33.20
2017-09-13T13:30:07.460Z,31.60
2017-09-13T13:32:36.955Z,32.20
2017-09-13T13:35:06.055Z,32.40
2017-09-13T13:37:35.359Z,31.40
2017-09-13T13:40:06.113Z,30.80
2017-09-13T13:42:36.213Z,30.80
2017-09-13T13:45:05.904Z,29.50
2017-09-13T13:47:35.116Z,29.30
2017-09-13T13:50:04.223Z,29.10
2017-09-13T13:52:33.448Z,28.80
2017-09-13T13:55:02.700Z,28.50
2017-09-13T13:57:31.914Z,28.20
2017-09-13T14:00:01.664Z,28.20
2017-09-13T14:02:30.925Z,28.20
2017-09-13T14:04:59.819Z,27.90
2017-09-13T14:07:28.833Z,28.10
2017-09-13T14:09:59.650Z,28.40
2017-09-13T14:12:29.069Z,28.40
2017-09-13T14:14:58.243Z,27.70
2017-09-13T14:17:27.593Z,27.70
2017-09-13T14:19:56.992Z,27.50
2017-09-13T14:22:26.198Z,27.70
2017-09-13T14:24:56.265Z,27.30
2017-09-13T14:27:25.693Z,27.30
2017-09-13T14:29:56.002Z,27.10
2017-09-13T14:32:25.296Z,27.10
2017-09-13T14:34:54.391Z,27.20
2017-09-13T14:37:23.540Z,27.10
2017-09-13T14:39:53.706Z,27.30
2017-09-13T14:42:23.443Z,27.20
2017-09-13T14:44:54.058Z,27.20
2017-09-13T14:47:23.170Z,26.80
2017-09-13T14:49:52.163Z,26.70
2017-09-13T14:52:21.123Z,26.90
2017-09-13T14:54:50.425Z,27.10
2017-09-13T14:57:20.762Z,26.90
2017-09-13T14:59:50.671Z,27.00
2017-09-13T15:02:20.062Z,27.00
2017-09-13T15:04:50.246Z,27.00
2017-09-13T15:07:19.545Z,27.20
2017-09-13T15:09:48.709Z,27.40
2017-09-13T15:12:18.815Z,27.40
2017-09-13T15:14:49.151Z,27.10
2017-09-13T15:17:19.628Z,26.90
2017-09-13T15:19:49.473Z,26.80
2017-09-13T15:22:18.370Z,26.90
2017-09-13T15:24:47.694Z,26.70
2017-09-13T15:27:18.086Z,26.60
2017-09-13T15:29:48.555Z,26.50
2017-09-13T15:32:18.426Z,26.40
2017-09-13T15:34:47.641Z,26.40
2017-09-13T15:37:18.438Z,26.40
2017-09-13T15:39:49.364Z,26.50
2017-09-13T15:42:21.867Z,26.50
2017-09-13T15:44:51.527Z,26.20
2017-09-13T15:47:20.888Z,26.10
2017-09-13T15:49:52.202Z,26.00
2017-09-13T15:52:21.434Z,26.00
2017-09-13T15:54:50.542Z,26.00
2017-09-13T15:57:20.518Z,26.10
2017-09-13T15:59:50.970Z,26.00
2017-09-13T16:02:19.983Z,26.00
2017-09-13T16:04:49.089Z,26.10
2017-09-13T16:07:18.550Z,25.90
2017-09-13T16:09:48.886Z,25.90
2017-09-13T16:12:18.876Z,25.90
2017-09-13T16:14:52.322Z,25.90
2017-09-13T16:17:22.136Z,25.80
2017-09-13T16:19:51.437Z,25.70
2017-09-13T16:22:23.253Z,25.60
2017-09-13T16:24:55.972Z,25.60
2017-09-13T16:27:25.686Z,25.60
2017-09-13T16:29:56.805Z,25.70
2017-09-13T16:32:30.975Z,25.70
2017-09-13T16:35:01.111Z,25.60
2017-09-13T16:37:32.084Z,25.50
2017-09-13T16:40:03.698Z,25.50
2017-09-13T16:42:33.396Z,25.50
2017-09-13T16:45:03.692Z,25.60
2017-09-13T16:47:38.697Z,25.60
2017-09-13T16:50:10.842Z,25.50
2017-09-13T16:52:42.196Z,25.40
2017-09-13T16:55:14.040Z,25.40
2017-09-13T16:57:46.157Z,25.40
2017-09-13T17:00:16.608Z,25.40
2017-09-13T17:02:52.485Z,25.30
2017-09-13T17:05:29.893Z,25.40
2017-09-13T17:08:02.603Z,25.40
2017-09-13T17:10:38.567Z,25.30
2017-09-13T17:13:14.820Z,25.30
2017-09-13T17:15:46.204Z,25.30
2017-09-13T17:18:17.282Z,25.30
2017-09-13T17:20:49.409Z,25.20
2017-09-13T17:23:21.002Z,25.20
2017-09-13T17:25:51.645Z,25.10
2017-09-13T17:28:22.109Z,25.00
2017-09-13T17:30:50.899Z,25.00
2017-09-13T17:33:21.532Z,25.00
2017-09-13T17:35:50.818Z,24.90
2017-09-13T17:38:21.364Z,25.00
2017-09-13T17:40:50.784Z,25.00
2017-09-13T17:43:20.206Z,25.00
2017-09-13T17:45:51.219Z,25.00
2017-09-13T17:48:22.180Z,25.00
2017-09-13T17:50:51.872Z,24.90
2017-09-13T17:53:21.163Z,24.80
2017-09-13T17:55:50.732Z,24.80
2017-09-13T17:58:20.237Z,24.80
2017-09-13T18:00:49.394Z,24.70
2017-09-13T18:03:19.092Z,24.70
2017-09-13T18:05:49.381Z,24.70
2017-09-13T18:08:20.275Z,24.70
2017-09-13T18:10:50.108Z,24.60
2017-09-13T18:13:19.599Z,24.60
2017-09-13T18:15:48.701Z,24.60
2017-09-13T18:18:19.919Z,24.50
2017-09-13T18:20:49.797Z,24.50
2017-09-13T18:23:18.832Z,24.50
2017-09-13T18:25:47.775Z,24.30
2017-09-13T18:28:17.321Z,24.30
2017-09-13T18:30:46.426Z,24.40
2017-09-13T18:33:16.580Z,24.30
2017-09-13T18:35:45.937Z,24.30
2017-09-13T18:38:15.378Z,24.30
2017-09-13T18:40:45.334Z,24.30
2017-09-13T18:43:16.229Z,24.30
2017-09-13T18:45:45.918Z,24.20
2017-09-13T18:48:16.233Z,24.30
2017-09-13T18:50:46.555Z,24.20
2017-09-13T18:53:15.483Z,24.20
2017-09-13T18:55:44.996Z,24.20
2017-09-13T18:58:14.192Z,24.20
2017-09-13T19:00:44.056Z,24.10
2017-09-13T19:03:13.411Z,24.20
2017-09-13T19:05:46.859Z,24.10
2017-09-13T19:08:16.884Z,24.10
2017-09-13T19:10:46.249Z,24.10
2017-09-13T19:13:15.275Z,24.10
2017-09-13T19:15:45.625Z,24.10
2017-09-13T19:18:15.336Z,24.10
2017-09-13T19:20:46.322Z,24.10
2017-09-13T19:23:15.469Z,24.10
2017-09-13T19:25:45.309Z,24.10
2017-09-13T19:28:19.400Z,24.10
2017-09-13T19:30:49.878Z,24.10
2017-09-13T19:33:18.970Z,24.10
2017-09-13T19:35:48.917Z,24.00
2017-09-13T19:38:18.212Z,24.00
2017-09-13T19:40:50.249Z,23.90
2017-09-13T19:43:19.383Z,23.90
2017-09-13T19:45:50.310Z,23.90
2017-09-13T19:48:25.430Z,23.90
2017-09-13T19:50:57.960Z,23.90
2017-09-13T19:53:34.012Z,23.90
2017-09-13T19:56:06.128Z,23.90
2017-09-13T19:58:37.468Z,23.90
2017-09-13T20:01:08.115Z,23.90
2017-09-13T20:03:37.533Z,23.90
2017-09-13T20:06:07.955Z,23.90
2017-09-13T20:08:38.617Z,23.90
2017-09-13T20:11:08.078Z,23.90
2017-09-13T20:13:37.207Z,23.90
2017-09-13T20:16:06.310Z,23.90
2017-09-13T20:18:35.548Z,23.90
2017-09-13T20:21:05.053Z,23.90
2017-09-13T20:23:34.570Z,23.90
2017-09-13T20:26:04.674Z,23.80
2017-09-13T20:28:37.002Z,23.80
2017-09-13T20:31:06.696Z,23.70
2017-09-13T20:33:37.499Z,23.80
2017-09-13T20:36:07.646Z,23.80
2017-09-13T20:38:37.816Z,23.70
2017-09-13T20:41:07.338Z,23.70
2017-09-13T20:43:37.791Z,23.70
2017-09-13T20:46:07.555Z,23.70
2017-09-13T20:48:37.303Z,23.70
2017-09-13T20:51:06.496Z,23.70
2017-09-13T20:53:35.650Z,23.70
2017-09-13T20:56:06.160Z,23.70
2017-09-13T20:58:35.138Z,23.70
2017-09-13T21:01:15.856Z,23.70
2017-09-13T21:03:56.379Z,23.70
2017-09-13T21:06:32.327Z,23.70
2017-09-13T21:09:05.420Z,23.70
2017-09-13T21:11:41.045Z,23.80
2017-09-13T21:14:17.938Z,23.70
2017-09-13T21:17:08.151Z,23.60
2017-09-13T21:19:49.857Z,23.60
2017-09-13T21:22:23.821Z,23.60
2017-09-13T21:24:55.646Z,23.60
2017-09-13T21:30:33.151Z,23.60
2017-09-13T21:33:10.818Z,23.60
2017-09-13T21:35:45.996Z,23.50
2017-09-13T21:38:28.318Z,23.60
2017-09-13T21:41:07.490Z,23.50
2017-09-13T21:43:42.394Z,23.60
2017-09-13T21:46:18.761Z,23.50
2017-09-13T21:51:41.643Z,23.50
2017-09-13T21:54:11.841Z,23.50
2017-09-13T21:56:49.693Z,23.50
2017-09-13T21:59:28.430Z,23.50
2017-09-13T22:02:03.454Z,23.50
2017-09-13T22:04:37.020Z,23.50
2017-09-13T22:07:06.354Z,23.50
2017-09-13T22:09:45.096Z,23.50
2017-09-13T22:12:16.656Z,23.50
2017-09-13T22:14:52.226Z,23.50
2017-09-13T22:17:23.480Z,23.50
2017-09-13T22:20:02.783Z,23.50
2017-09-13T22:22:42.335Z,23.50
2017-09-13T22:25:12.881Z,23.50
2017-09-13T22:27:45.886Z,23.50
2017-09-13T22:30:15.829Z,23.50
2017-09-13T22:32:45.545Z,23.40
2017-09-13T22:35:14.906Z,23.40
2017-09-13T22:37:45.960Z,23.40
2017-09-13T22:40:26.800Z,23.40
2017-09-13T22:43:17.747Z,23.40
2017-09-13T22:45:54.364Z,23.40
2017-09-13T22:48:24.506Z,23.30
2017-09-13T22:50:53.496Z,23.30
2017-09-13T22:53:22.589Z,23.30
2017-09-13T22:55:52.164Z,23.30
2017-09-13T22:58:22.418Z,23.30
2017-09-13T23:00:52.086Z,23.30
2017-09-13T23:03:21.348Z,23.30
2017-09-13T23:05:50.692Z,23.30
2017-09-13T23:08:20.616Z,23.30
2017-09-13T23:10:49.500Z,23.30
2017-09-13T23:13:19.234Z,23.30
2017-09-13T23:15:49.455Z,23.40
2017-09-13T23:18:20.315Z,23.30
2017-09-13T23:20:49.560Z,23.30
2017-09-13T23:23:18.656Z,23.30
2017-09-13T23:25:47.547Z,23.30
2017-09-13T23:28:20.309Z,23.40
2017-09-13T23:30:52.262Z,23.40
2017-09-13T23:33:22.104Z,22.70
2017-09-13T23:35:51.319Z,23.30
2017-09-13T23:38:21.126Z,23.30
2017-09-13T23:40:58.811Z,23.30
2017-09-13T23:43:30.012Z,23.20
2017-09-13T23:45:58.949Z,23.20
2017-09-13T23:48:32.099Z,23.20
2017-09-13T23:51:01.136Z,23.20
2017-09-13T23:53:30.238Z,23.20
2017-09-13T23:56:03.764Z,23.30
2017-09-13T23:58:33.347Z,23.30
